VTUO METAR and TAF | Updated Today

VTUO METAR

Buri Ram Airport

Observation time: 19 min. ago

VTUO 080700Z 07008KT 040V100 CAVOK 27/14 Q1015 NOSIG

Need help? Read our tutorial on how to read METARs or read the parsed version below.

Buri Ram Airport (VTUO) METAR

  • Weather conditions on Wed, 08 Dec 2021 07:00:00 +0000 (19 min. ago):
  • Present conditions: Dry
  • Clouds: Clear skies
  • Visibility: Greater than 10 km
  • Wind: 70 degrees at 8 knots
  • Temperature: 27 celsius
  • Dew point: 14 celsius
  • Pressure: 1015 millibars
  • Remarks: None


Useful to know...

VTUO TAF

Buri Ram Airport

TAF VTUO 080500Z 0806/0906 05008KT CAVOK
Observation time: 2:19 hr. ago
Need help? Read our tutorial on how to read TAFs or read the parsed version below.

Parsed version of TAF for Buri Ram Airport (VTUO)

  • From 08 December at 06:00 UTC, to day 09 of the month at 06:00 UTC
  • Visibility: Greater than 10 km
  • Wind: 50 degrees at 8